Time;durP1;ratioP1;P1;durP2;ratioP2;P2;SDS_P1;SDS_P2;PMS_P1;PMS_P2;Temp;Humidity;BMP_temperature;BMP_pressure;BME280_temperature;BME280_humidity;BME280_pressure;Samples;Min_cycle;Max_cycle;Signal;HPM_P1;HPM_P2
2023/12/07 00:01:30;;;;;;;8.32;6.68;;;;;;;;;;4980632;28;20185;-43
2023/12/07 00:03:56;;;;;;;10.50;9.53;;;;;;;;;;4980911;28;20244;-43
2023/12/07 00:06:22;;;;;;;9.03;8.00;;;;;;;;;;4983724;28;20455;-42
2023/12/07 00:08:47;;;;;;;8.70;7.63;;;;;;;;;;4988624;28;20439;-42
2023/12/07 00:11:13;;;;;;;10.33;8.97;;;;;;;;;;4982846;28;20459;-43
2023/12/07 00:13:39;;;;;;;8.30;7.50;;;;;;;;;;4983187;28;20915;-42
2023/12/07 00:16:05;;;;;;;10.63;9.60;;;;;;;;;;4984464;28;20897;-42
2023/12/07 00:18:31;;;;;;;14.18;12.02;;;;;;;;;;4983862;28;20481;-43
2023/12/07 00:20:57;;;;;;;9.50;8.43;;;;;;;;;;4984834;28;20607;-42
2023/12/07 00:23:23;;;;;;;7.53;6.50;;;;;;;;;;4988392;28;20824;-43
2023/12/07 00:25:50;;;;;;;8.47;6.80;;;;;;;;;;4987097;28;20789;-43
2023/12/07 00:28:16;;;;;;;9.75;7.93;;;;;;;;;;4981117;28;20458;-42
2023/12/07 00:30:42;;;;;;;10.45;9.48;;;;;;;;;;4980857;28;20205;-42
2023/12/07 00:33:09;;;;;;;9.00;7.90;;;;;;;;;;4986151;28;20724;-43
2023/12/07 00:35:35;;;;;;;8.55;6.18;;;;;;;;;;4986677;28;20267;-43
2023/12/07 00:38:01;;;;;;;9.98;7.50;;;;;;;;;;4984926;28;20175;-43
2023/12/07 00:40:27;;;;;;;8.18;6.25;;;;;;;;;;4985565;28;20284;-42
2023/12/07 00:42:53;;;;;;;8.70;7.32;;;;;;;;;;4985616;28;20189;-43
2023/12/07 00:45:19;;;;;;;7.13;5.50;;;;;;;;;;4979717;28;20181;-43
2023/12/07 00:47:45;;;;;;;8.25;6.82;;;;;;;;;;4987061;28;20415;-43
2023/12/07 00:50:14;;;;;;;13.93;12.73;;;;;;;;;;4983704;28;20564;-42
2023/12/07 00:52:40;;;;;;;8.07;6.25;;;;;;;;;;4984153;28;20417;-42
2023/12/07 00:55:06;;;;;;;8.95;7.68;;;;;;;;;;4985503;28;20261;-43
2023/12/07 00:57:32;;;;;;;8.75;7.85;;;;;;;;;;4983643;28;20231;-43
2023/12/07 00:59:58;;;;;;;8.53;7.57;;;;;;;;;;4983554;28;20204;-42
2023/12/07 01:02:24;;;;;;;12.77;10.33;;;;;;;;;;4982761;28;20429;-42
2023/12/07 01:04:50;;;;;;;9.47;7.87;;;;;;;;;;4988468;28;20412;-42
2023/12/07 01:07:16;;;;;;;8.23;5.67;;;;;;;;;;4982270;28;20412;-42
2023/12/07 01:09:42;;;;;;;8.13;6.27;;;;;;;;;;4981678;28;20429;-43
2023/12/07 01:12:08;;;;;;;8.30;7.17;;;;;;;;;;4983699;28;20457;-43
2023/12/07 01:14:34;;;;;;;8.23;6.53;;;;;;;;;;4983301;28;20421;-43
2023/12/07 01:17:00;;;;;;;7.23;5.93;;;;;;;;;;4982942;28;20435;-42
2023/12/07 01:19:26;;;;;;;9.87;8.17;;;;;;;;;;4986962;28;20532;-43
2023/12/07 01:21:52;;;;;;;7.73;5.80;;;;;;;;;;4986714;28;20424;-43
2023/12/07 01:24:18;;;;;;;8.63;6.53;;;;;;;;;;4973034;28;20438;-42
2023/12/07 01:26:44;;;;;;;6.90;5.20;;;;;;;;;;4979965;28;20476;-43
2023/12/07 01:29:10;;;;;;;8.27;6.40;;;;;;;;;;4983916;28;20488;-43
2023/12/07 01:31:36;;;;;;;11.15;10.07;;;;;;;;;;4985568;28;20216;-43
2023/12/07 01:34:02;;;;;;;10.50;9.40;;;;;;;;;;4984343;28;20252;-43
2023/12/07 01:36:28;;;;;;;8.50;7.13;;;;;;;;;;4985085;28;20401;-43
2023/12/07 01:38:54;;;;;;;7.80;7.00;;;;;;;;;;4976254;28;20578;-43
2023/12/07 01:41:19;;;;;;;8.33;6.70;;;;;;;;;;4965128;28;20453;-43
2023/12/07 01:43:49;;;;;;;8.43;6.97;;;;;;;;;;4960972;28;20417;-43
2023/12/07 01:46:15;;;;;;;9.20;7.78;;;;;;;;;;4972380;28;20906;-42
2023/12/07 01:48:41;;;;;;;9.38;8.38;;;;;;;;;;4955332;28;20171;-43
2023/12/07 01:51:08;;;;;;;9.05;8.13;;;;;;;;;;4972670;28;20573;-43
2023/12/07 01:53:34;;;;;;;8.63;7.60;;;;;;;;;;4960868;28;20178;-43
2023/12/07 01:56:00;;;;;;;9.60;8.57;;;;;;;;;;4966380;28;20547;-43
2023/12/07 01:58:26;;;;;;;8.35;7.45;;;;;;;;;;4967669;28;20174;-42
2023/12/07 02:00:53;;;;;;;11.97;10.73;;;;;;;;;;4956565;28;20718;-43
2023/12/07 02:03:20;;;;;;;8.75;7.90;;;;;;;;;;4973595;28;20417;-43
2023/12/07 02:05:49;;;;;;;9.10;7.93;;;;;;;;;;4956367;28;20186;-43
2023/12/07 02:08:16;;;;;;;10.48;8.95;;;;;;;;;;4968773;28;20220;-43
2023/12/07 02:10:41;;;;;;;8.75;7.55;;;;;;;;;;4963901;28;20246;-42
2023/12/07 02:13:08;;;;;;;8.87;7.90;;;;;;;;;;4960866;28;20689;-43
2023/12/07 02:15:34;;;;;;;10.07;8.55;;;;;;;;;;4972028;28;20393;-43
2023/12/07 02:18:03;;;;;;;8.98;8.00;;;;;;;;;;4954834;28;20213;-43
2023/12/07 02:20:31;;;;;;;9.07;8.10;;;;;;;;;;4972102;28;20297;-43
2023/12/07 02:23:01;;;;;;;9.25;7.97;;;;;;;;;;4959954;28;20174;-43
2023/12/07 02:25:29;;;;;;;8.35;7.05;;;;;;;;;;4965007;28;20180;-43
2023/12/07 02:27:55;;;;;;;9.82;8.82;;;;;;;;;;4966753;28;20549;-43
2023/12/07 02:30:21;;;;;;;19.48;15.90;;;;;;;;;;4954587;28;20292;-42
2023/12/07 02:32:47;;;;;;;8.87;7.97;;;;;;;;;;4981694;28;20181;-43
2023/12/07 02:35:13;;;;;;;9.30;8.40;;;;;;;;;;4981740;28;20412;-43
2023/12/07 02:37:42;;;;;;;8.68;7.78;;;;;;;;;;4982175;28;20177;-42
2023/12/07 02:40:10;;;;;;;8.20;7.40;;;;;;;;;;4982440;28;20263;-42
2023/12/07 02:42:37;;;;;;;8.95;8.05;;;;;;;;;;4982416;28;20173;-43
2023/12/07 02:45:04;;;;;;;9.40;8.25;;;;;;;;;;4978460;28;20208;-43
2023/12/07 02:47:30;;;;;;;9.88;8.88;;;;;;;;;;4979985;28;20189;-44
2023/12/07 02:49:56;;;;;;;9.48;8.48;;;;;;;;;;4983776;28;20227;-43
2023/12/07 02:52:22;;;;;;;9.63;8.70;;;;;;;;;;4984732;28;20177;-43
2023/12/07 02:54:48;;;;;;;9.13;8.23;;;;;;;;;;4982355;28;20416;-43
2023/12/07 02:57:14;;;;;;;9.40;8.43;;;;;;;;;;4984660;28;20174;-43
2023/12/07 02:59:41;;;;;;;9.60;8.68;;;;;;;;;;4981271;28;20196;-43
2023/12/07 03:02:07;;;;;;;10.40;9.38;;;;;;;;;;4976950;28;20251;-43
2023/12/07 03:04:33;;;;;;;9.48;8.52;;;;;;;;;;4984628;28;20700;-43
2023/12/07 03:06:59;;;;;;;10.65;9.50;;;;;;;;;;4981469;28;20252;-43
2023/12/07 03:09:25;;;;;;;11.30;10.23;;;;;;;;;;4983168;28;20707;-43
2023/12/07 03:11:51;;;;;;;10.57;9.53;;;;;;;;;;4981278;28;20201;-43
2023/12/07 03:14:19;;;;;;;10.15;9.10;;;;;;;;;;4979278;28;20780;-43
2023/12/07 03:16:45;;;;;;;8.77;7.88;;;;;;;;;;4980441;28;20223;-42
2023/12/07 03:19:11;;;;;;;8.88;7.97;;;;;;;;;;4981484;28;20288;-43
2023/12/07 03:21:40;;;;;;;9.00;8.10;;;;;;;;;;4984062;28;20256;-43
2023/12/07 03:24:10;;;;;;;9.57;8.50;;;;;;;;;;4979890;28;20417;-43
2023/12/07 03:26:36;;;;;;;9.57;8.55;;;;;;;;;;4986556;28;20185;-42
2023/12/07 03:29:02;;;;;;;9.75;8.73;;;;;;;;;;4980982;28;20197;-43
2023/12/07 03:31:29;;;;;;;10.50;8.70;;;;;;;;;;4980839;28;20198;-43
2023/12/07 03:33:55;;;;;;;9.15;8.07;;;;;;;;;;4981178;28;20413;-42
2023/12/07 03:36:21;;;;;;;10.50;9.45;;;;;;;;;;4985502;28;20178;-43
2023/12/07 03:38:47;;;;;;;8.65;7.75;;;;;;;;;;4983552;28;20713;-43
2023/12/07 03:41:13;;;;;;;9.25;8.20;;;;;;;;;;4979910;28;20675;-42
2023/12/07 03:43:39;;;;;;;10.32;9.43;;;;;;;;;;4982338;28;20545;-43
2023/12/07 03:46:06;;;;;;;10.20;9.10;;;;;;;;;;4986663;28;20183;-42
2023/12/07 03:48:32;;;;;;;13.40;11.93;;;;;;;;;;4987691;28;20671;-43
2023/12/07 03:50:58;;;;;;;9.82;8.02;;;;;;;;;;4985744;28;20257;-43
2023/12/07 03:53:24;;;;;;;8.75;7.32;;;;;;;;;;4987379;28;20177;-43
2023/12/07 03:55:50;;;;;;;9.07;8.18;;;;;;;;;;4986661;28;20185;-43
2023/12/07 03:58:16;;;;;;;10.40;9.30;;;;;;;;;;4980146;28;20168;-43
2023/12/07 04:00:42;;;;;;;11.45;10.38;;;;;;;;;;4987860;28;20255;-43
2023/12/07 04:03:08;;;;;;;9.73;8.73;;;;;;;;;;4984960;28;20205;-42
2023/12/07 04:05:34;;;;;;;9.35;7.93;;;;;;;;;;4985863;28;20407;-43
2023/12/07 04:08:00;;;;;;;8.43;7.60;;;;;;;;;;4985656;28;20725;-43
2023/12/07 04:10:26;;;;;;;9.07;7.73;;;;;;;;;;4984813;28;21043;-42
2023/12/07 04:12:52;;;;;;;8.70;7.00;;;;;;;;;;4984817;28;20916;-43
2023/12/07 04:15:19;;;;;;;9.70;7.95;;;;;;;;;;4984324;28;20174;-42
2023/12/07 04:17:45;;;;;;;8.70;7.80;;;;;;;;;;4988507;28;20264;-43
2023/12/07 04:20:12;;;;;;;9.40;8.47;;;;;;;;;;4982907;28;20341;-43
2023/12/07 04:22:39;;;;;;;9.10;8.20;;;;;;;;;;4983482;28;20428;-43
2023/12/07 04:25:05;;;;;;;8.45;7.38;;;;;;;;;;4984775;28;20181;-42
2023/12/07 04:27:31;;;;;;;8.65;7.85;;;;;;;;;;4984371;28;20537;-43
2023/12/07 04:29:57;;;;;;;8.75;7.82;;;;;;;;;;4984259;28;20212;-43
2023/12/07 04:32:23;;;;;;;9.18;8.25;;;;;;;;;;4980059;28;20174;-43
2023/12/07 04:34:49;;;;;;;8.63;7.57;;;;;;;;;;4965723;28;20182;-43
2023/12/07 04:37:15;;;;;;;8.10;7.23;;;;;;;;;;4962772;28;20265;-43
2023/12/07 04:39:41;;;;;;;8.95;7.60;;;;;;;;;;4973112;28;20433;-43
2023/12/07 04:42:07;;;;;;;8.02;7.22;;;;;;;;;;4956685;28;20185;-43
2023/12/07 04:44:33;;;;;;;9.00;8.07;;;;;;;;;;4957043;28;20257;-43
2023/12/07 04:46:59;;;;;;;8.97;8.07;;;;;;;;;;4970119;28;20424;-43
2023/12/07 04:49:25;;;;;;;9.30;7.90;;;;;;;;;;4974911;28;20441;-43
2023/12/07 04:51:51;;;;;;;7.40;6.53;;;;;;;;;;4969787;28;20206;-43
2023/12/07 04:54:17;;;;;;;9.90;8.63;;;;;;;;;;4957968;28;20488;-43
2023/12/07 04:56:43;;;;;;;8.63;7.65;;;;;;;;;;4975811;28;20170;-43
2023/12/07 04:59:10;;;;;;;9.57;8.67;;;;;;;;;;4975071;28;20732;-42
2023/12/07 05:01:39;;;;;;;9.38;8.38;;;;;;;;;;4961852;28;20484;-42
2023/12/07 05:04:05;;;;;;;11.07;9.45;;;;;;;;;;4963782;28;20189;-43
2023/12/07 05:06:31;;;;;;;8.80;7.95;;;;;;;;;;4987112;28;20204;-43
2023/12/07 05:08:57;;;;;;;8.23;7.22;;;;;;;;;;4984043;28;20692;-43
2023/12/07 05:11:23;;;;;;;9.10;7.40;;;;;;;;;;4988374;28;20193;-43
2023/12/07 05:13:49;;;;;;;9.07;7.70;;;;;;;;;;4983279;28;20248;-43
2023/12/07 05:16:15;;;;;;;8.77;7.35;;;;;;;;;;4985042;28;20913;-42
2023/12/07 05:18:41;;;;;;;9.10;7.85;;;;;;;;;;4982284;28;20181;-43
2023/12/07 05:21:08;;;;;;;8.73;7.73;;;;;;;;;;4984340;28;20265;-43
2023/12/07 05:23:34;;;;;;;8.95;8.05;;;;;;;;;;4981085;28;20886;-42
2023/12/07 05:26:00;;;;;;;8.20;7.22;;;;;;;;;;4982090;28;20177;-42
2023/12/07 05:28:26;;;;;;;12.82;10.77;;;;;;;;;;4983649;28;20177;-42
2023/12/07 05:30:53;;;;;;;8.80;7.90;;;;;;;;;;4983157;28;20201;-43
2023/12/07 05:33:19;;;;;;;9.05;8.15;;;;;;;;;;4983639;28;20174;-42
2023/12/07 05:35:45;;;;;;;8.55;7.65;;;;;;;;;;4982882;28;20260;-43
2023/12/07 05:38:11;;;;;;;8.70;7.35;;;;;;;;;;4988131;28;20656;-42
2023/12/07 05:40:37;;;;;;;8.10;7.15;;;;;;;;;;4984504;28;20228;-42
2023/12/07 05:43:03;;;;;;;9.98;8.98;;;;;;;;;;4980211;28;20189;-43
2023/12/07 05:45:30;;;;;;;8.60;7.33;;;;;;;;;;4981626;28;20559;-43
2023/12/07 05:47:56;;;;;;;8.23;7.05;;;;;;;;;;4983262;28;20931;-43
2023/12/07 05:50:22;;;;;;;8.63;7.73;;;;;;;;;;4985859;28;20193;-43
2023/12/07 05:52:48;;;;;;;7.93;6.87;;;;;;;;;;4984030;28;20905;-43
2023/12/07 05:55:14;;;;;;;7.43;6.65;;;;;;;;;;4986763;28;20766;-43
2023/12/07 05:57:40;;;;;;;11.17;10.20;;;;;;;;;;4986336;28;20174;-42
2023/12/07 06:00:10;;;;;;;10.00;9.07;;;;;;;;;;4978142;28;20429;-43
2023/12/07 06:02:36;;;;;;;8.43;7.63;;;;;;;;;;4985130;28;20235;-43
2023/12/07 06:05:06;;;;;;;7.93;7.10;;;;;;;;;;4983147;28;20685;-43
2023/12/07 06:07:32;;;;;;;9.50;8.40;;;;;;;;;;4984175;28;20629;-43
2023/12/07 06:09:58;;;;;;;11.43;10.33;;;;;;;;;;4982625;28;20199;-43
2023/12/07 06:12:24;;;;;;;9.93;8.93;;;;;;;;;;4983552;28;20496;-43
2023/12/07 06:14:50;;;;;;;8.17;7.27;;;;;;;;;;4982573;28;20416;-43
2023/12/07 06:17:16;;;;;;;9.80;8.90;;;;;;;;;;4982103;28;20774;-42
2023/12/07 06:19:42;;;;;;;8.82;8.02;;;;;;;;;;4986178;28;20193;-43
2023/12/07 06:22:08;;;;;;;11.23;10.23;;;;;;;;;;4981379;28;20264;-42
2023/12/07 06:24:35;;;;;;;10.95;10.02;;;;;;;;;;4982068;28;20916;-42
2023/12/07 06:27:02;;;;;;;12.57;11.48;;;;;;;;;;4983150;28;20630;-43
2023/12/07 06:29:29;;;;;;;10.93;9.88;;;;;;;;;;4981589;28;20193;-43
2023/12/07 06:31:55;;;;;;;10.75;9.65;;;;;;;;;;4982016;28;20210;-43
2023/12/07 06:34:21;;;;;;;11.43;10.35;;;;;;;;;;4986932;28;20174;-43
2023/12/07 06:36:47;;;;;;;9.63;8.68;;;;;;;;;;4985095;28;20289;-43
2023/12/07 06:39:14;;;;;;;10.00;9.00;;;;;;;;;;4979141;28;20189;-42
2023/12/07 06:41:40;;;;;;;9.98;8.88;;;;;;;;;;4979390;28;20174;-43
2023/12/07 06:44:07;;;;;;;11.33;10.20;;;;;;;;;;4983332;28;20181;-42
2023/12/07 06:46:34;;;;;;;10.05;9.10;;;;;;;;;;4984921;28;20793;-42
2023/12/07 06:49:00;;;;;;;9.25;8.38;;;;;;;;;;4982227;28;20201;-42
2023/12/07 06:51:26;;;;;;;9.00;8.10;;;;;;;;;;4983424;28;20231;-42
2023/12/07 06:53:52;;;;;;;9.63;8.63;;;;;;;;;;4983981;28;20199;-42
2023/12/07 06:56:18;;;;;;;11.88;10.82;;;;;;;;;;4972586;28;20243;-43
2023/12/07 06:58:44;;;;;;;11.17;10.13;;;;;;;;;;4984303;28;20181;-42
2023/12/07 07:01:10;;;;;;;11.20;10.13;;;;;;;;;;4982175;28;20417;-42
2023/12/07 07:03:36;;;;;;;10.75;9.75;;;;;;;;;;4978890;28;20220;-43
2023/12/07 07:06:02;;;;;;;9.70;8.70;;;;;;;;;;4973355;28;20186;-42
2023/12/07 07:08:28;;;;;;;16.25;14.55;;;;;;;;;;4955974;28;20421;-42
2023/12/07 07:10:54;;;;;;;10.10;9.05;;;;;;;;;;4966430;28;20232;-42
2023/12/07 07:13:20;;;;;;;10.20;9.23;;;;;;;;;;4964586;28;20221;-42
2023/12/07 07:15:47;;;;;;;10.32;9.43;;;;;;;;;;4957728;28;20893;-42
2023/12/07 07:18:14;;;;;;;10.93;9.93;;;;;;;;;;4972162;28;20212;-42
2023/12/07 07:20:40;;;;;;;9.85;8.95;;;;;;;;;;4954046;28;20529;-42
2023/12/07 07:23:07;;;;;;;9.70;8.80;;;;;;;;;;4970605;28;20180;-43
2023/12/07 07:25:34;;;;;;;8.65;7.85;;;;;;;;;;4960397;28;20261;-42
2023/12/07 07:28:00;;;;;;;12.77;11.45;;;;;;;;;;4953921;28;20189;-42
2023/12/07 07:30:26;;;;;;;8.73;7.93;;;;;;;;;;4953221;28;20214;-42
2023/12/07 07:32:52;;;;;;;9.48;8.52;;;;;;;;;;4953619;28;20404;-42
2023/12/07 07:35:18;;;;;;;8.75;7.88;;;;;;;;;;4972567;28;20197;-43
2023/12/07 07:37:44;;;;;;;8.07;7.07;;;;;;;;;;4955993;28;20186;-42
2023/12/07 07:40:11;;;;;;;9.77;8.82;;;;;;;;;;4964880;28;20193;-43
2023/12/07 07:42:39;;;;;;;10.38;9.43;;;;;;;;;;4968248;28;20229;-42
2023/12/07 07:45:06;;;;;;;8.63;7.93;;;;;;;;;;4960502;28;20639;-42
2023/12/07 07:47:32;;;;;;;11.95;10.77;;;;;;;;;;4969305;28;20530;-42
2023/12/07 07:49:58;;;;;;;12.07;10.93;;;;;;;;;;4971744;28;20193;-42
2023/12/07 07:52:24;;;;;;;9.70;8.80;;;;;;;;;;4955863;28;20175;-42
2023/12/07 07:54:50;;;;;;;12.27;11.07;;;;;;;;;;4964567;28;20261;-42
2023/12/07 07:57:16;;;;;;;10.40;9.52;;;;;;;;;;4971503;28;20408;-42
2023/12/07 07:59:42;;;;;;;9.90;9.02;;;;;;;;;;4967436;28;20190;-42
2023/12/07 08:02:08;;;;;;;11.40;10.43;;;;;;;;;;4952427;28;20680;-42
2023/12/07 08:04:34;;;;;;;10.73;9.73;;;;;;;;;;4971961;28;21037;-42
2023/12/07 08:07:00;;;;;;;10.67;9.63;;;;;;;;;;4956211;28;20866;-42
2023/12/07 08:09:26;;;;;;;12.57;11.37;;;;;;;;;;4963429;28;20441;-43
2023/12/07 08:11:52;;;;;;;13.05;11.85;;;;;;;;;;4968420;28;20472;-42
2023/12/07 08:14:18;;;;;;;13.27;12.07;;;;;;;;;;4980881;28;20201;-42
2023/12/07 08:16:46;;;;;;;14.73;13.30;;;;;;;;;;4977236;28;20417;-42
2023/12/07 08:19:13;;;;;;;13.52;12.23;;;;;;;;;;4978850;28;20431;-42
2023/12/07 08:21:39;;;;;;;12.82;11.57;;;;;;;;;;4981595;28;20537;-43
2023/12/07 08:24:08;;;;;;;10.13;9.23;;;;;;;;;;4981993;28;20236;-42
2023/12/07 08:26:34;;;;;;;10.88;9.93;;;;;;;;;;4984638;28;20436;-42
2023/12/07 08:29:00;;;;;;;11.45;10.38;;;;;;;;;;4985811;28;20197;-42
2023/12/07 08:31:26;;;;;;;9.77;8.87;;;;;;;;;;4987088;28;20196;-42
2023/12/07 08:33:52;;;;;;;10.83;10.00;;;;;;;;;;4979314;28;20484;-42
2023/12/07 08:36:18;;;;;;;11.50;10.52;;;;;;;;;;4987394;28;20910;-42
2023/12/07 08:38:44;;;;;;;10.03;9.10;;;;;;;;;;4985247;28;20181;-42
2023/12/07 08:41:10;;;;;;;10.95;10.02;;;;;;;;;;4986150;28;20421;-42
2023/12/07 08:43:36;;;;;;;12.27;11.17;;;;;;;;;;4984577;28;20476;-42
2023/12/07 08:46:03;;;;;;;10.57;9.67;;;;;;;;;;4985499;28;20502;-42
2023/12/07 08:48:29;;;;;;;14.30;13.05;;;;;;;;;;4980515;28;20467;-43
2023/12/07 08:50:55;;;;;;;8.90;8.13;;;;;;;;;;4981963;28;20244;-43
2023/12/07 08:53:21;;;;;;;10.55;9.75;;;;;;;;;;4987087;28;20212;-43
2023/12/07 08:55:47;;;;;;;10.60;9.77;;;;;;;;;;4982956;28;20269;-43
2023/12/07 08:58:13;;;;;;;12.60;11.67;;;;;;;;;;4985020;28;20413;-43
2023/12/07 09:00:39;;;;;;;13.83;12.90;;;;;;;;;;4983584;28;20503;-43
2023/12/07 09:03:05;;;;;;;14.80;13.75;;;;;;;;;;4983575;28;20460;-43
2023/12/07 09:05:31;;;;;;;12.85;11.95;;;;;;;;;;4983501;28;20237;-43
2023/12/07 09:07:57;;;;;;;15.37;14.37;;;;;;;;;;4988433;28;20194;-43
2023/12/07 09:10:23;;;;;;;19.48;18.17;;;;;;;;;;4982424;28;20990;-43
2023/12/07 09:12:49;;;;;;;20.33;19.02;;;;;;;;;;4980654;28;20173;-43
2023/12/07 09:15:15;;;;;;;21.47;20.20;;;;;;;;;;4983615;28;20602;-43
2023/12/07 09:17:42;;;;;;;21.47;20.17;;;;;;;;;;4983270;28;20409;-43
2023/12/07 09:20:14;;;;;;;21.65;20.35;;;;;;;;;;4983638;28;20464;-43
2023/12/07 09:22:44;;;;;;;25.60;24.00;;;;;;;;;;4985173;28;20178;-43
2023/12/07 09:25:10;;;;;;;28.90;27.30;;;;;;;;;;4986492;28;20722;-43
2023/12/07 09:27:37;;;;;;;30.38;28.67;;;;;;;;;;4982598;28;20707;-43
2023/12/07 09:30:04;;;;;;;30.65;28.95;;;;;;;;;;4977834;28;20205;-44
2023/12/07 09:32:30;;;;;;;30.63;28.73;;;;;;;;;;4986334;28;20184;-44
2023/12/07 09:34:56;;;;;;;31.60;29.80;;;;;;;;;;4983293;28;20188;-43
2023/12/07 09:37:22;;;;;;;35.65;33.67;;;;;;;;;;4985172;28;20409;-43
2023/12/07 09:39:48;;;;;;;34.53;32.43;;;;;;;;;;4975767;28;20207;-43
2023/12/07 09:42:14;;;;;;;32.03;30.33;;;;;;;;;;4961159;28;20427;-43
2023/12/07 09:44:40;;;;;;;34.73;32.90;;;;;;;;;;4964072;28;20417;-43
2023/12/07 09:47:06;;;;;;;42.47;40.20;;;;;;;;;;4970110;28;20414;-43
2023/12/07 09:49:32;;;;;;;49.08;46.47;;;;;;;;;;4955676;28;20489;-43
2023/12/07 09:51:59;;;;;;;51.50;48.67;;;;;;;;;;4974528;28;20295;-43
2023/12/07 09:54:27;;;;;;;47.10;44.50;;;;;;;;;;4958108;28;20422;-43
2023/12/07 09:56:54;;;;;;;48.08;45.45;;;;;;;;;;4973341;28;20183;-44
2023/12/07 09:59:20;;;;;;;53.33;50.42;;;;;;;;;;4965466;28;20690;-43
2023/12/07 10:01:46;;;;;;;49.70;47.07;;;;;;;;;;4959699;28;20193;-43
2023/12/07 10:04:18;;;;;;;45.70;43.30;;;;;;;;;;4973689;28;20959;-43
2023/12/07 10:06:49;;;;;;;51.55;48.65;;;;;;;;;;4955032;28;20419;-43
2023/12/07 10:09:15;;;;;;;51.75;49.03;;;;;;;;;;4972315;28;20651;-43
2023/12/07 10:11:41;;;;;;;52.93;50.03;;;;;;;;;;4960635;28;20291;-43
2023/12/07 10:14:07;;;;;;;56.88;53.63;;;;;;;;;;4964466;28;20495;-43
2023/12/07 10:16:35;;;;;;;53.67;50.72;;;;;;;;;;4968479;28;20538;-43
2023/12/07 10:19:14;;;;;;;55.38;52.22;;;;;;;;;;4956124;28;20280;-43
2023/12/07 10:21:40;;;;;;;48.28;45.53;;;;;;;;;;4974095;28;20526;-43
2023/12/07 10:24:06;;;;;;;53.00;50.10;;;;;;;;;;4955106;28;20173;-43
2023/12/07 10:26:32;;;;;;;49.33;46.53;;;;;;;;;;4969767;28;20593;-43
2023/12/07 10:28:59;;;;;;;55.03;51.80;;;;;;;;;;4962405;28;20441;-43
2023/12/07 10:31:26;;;;;;;49.22;45.97;;;;;;;;;;4961412;28;20535;-43
2023/12/07 10:33:52;;;;;;;46.72;44.08;;;;;;;;;;4973829;28;20193;-43
2023/12/07 10:36:18;;;;;;;43.03;40.58;;;;;;;;;;4973966;28;20170;-43
2023/12/07 10:38:45;;;;;;;53.40;50.27;;;;;;;;;;4954645;28;20190;-43
2023/12/07 10:41:12;;;;;;;53.47;50.42;;;;;;;;;;4969269;28;20420;-43
2023/12/07 10:43:42;;;;;;;50.88;47.78;;;;;;;;;;4962462;28;20213;-43
2023/12/07 10:46:09;;;;;;;49.33;46.17;;;;;;;;;;4961923;28;20553;-43
2023/12/07 10:48:36;;;;;;;46.63;43.65;;;;;;;;;;4969414;28;20182;-43
2023/12/07 10:51:05;;;;;;;45.45;42.38;;;;;;;;;;4954415;28;20202;-43
2023/12/07 10:53:40;;;;;;;50.53;47.00;;;;;;;;;;4954401;28;20196;-43
2023/12/07 10:56:10;;;;;;;50.33;46.75;;;;;;;;;;4970823;28;20204;-43
2023/12/07 10:58:36;;;;;;;50.85;47.33;;;;;;;;;;4972690;28;20257;-43
2023/12/07 11:01:02;;;;;;;52.53;48.80;;;;;;;;;;4963964;28;20191;-43
2023/12/07 11:03:29;;;;;;;54.63;50.83;;;;;;;;;;4959569;28;20444;-43
2023/12/07 11:05:55;;;;;;;58.57;54.17;;;;;;;;;;4970263;28;20237;-43
2023/12/07 11:08:21;;;;;;;63.08;58.35;;;;;;;;;;4953835;28;20421;-43
2023/12/07 11:10:53;;;;;;;61.20;56.60;;;;;;;;;;4970603;28;20205;-43
2023/12/07 11:13:29;;;;;;;57.70;53.13;;;;;;;;;;4959510;28;20407;-43
2023/12/07 11:15:56;;;;;;;58.45;53.78;;;;;;;;;;4964909;28;20432;-43
2023/12/07 11:18:22;;;;;;;63.33;58.35;;;;;;;;;;4965843;28;20178;-43
2023/12/07 11:20:48;;;;;;;62.77;57.97;;;;;;;;;;4972243;28;20664;-43
2023/12/07 11:23:18;;;;;;;59.97;55.03;;;;;;;;;;4972959;28;20397;-43
2023/12/07 11:25:45;;;;;;;55.95;51.20;;;;;;;;;;4953949;28;20180;-43
2023/12/07 11:28:12;;;;;;;57.88;53.08;;;;;;;;;;4968827;28;20184;-43
2023/12/07 11:30:38;;;;;;;57.17;52.38;;;;;;;;;;4961448;28;20690;-43
2023/12/07 11:33:04;;;;;;;54.13;49.53;;;;;;;;;;4961049;28;20189;-43
2023/12/07 11:35:30;;;;;;;57.33;52.40;;;;;;;;;;4969223;28;20180;-43
2023/12/07 11:38:05;;;;;;;55.10;50.40;;;;;;;;;;4953376;28;20257;-43
2023/12/07 11:40:32;;;;;;;53.35;48.70;;;;;;;;;;4972519;28;20280;-43
2023/12/07 11:42:59;;;;;;;52.30;47.78;;;;;;;;;;4956440;28;20178;-42
2023/12/07 11:45:38;;;;;;;56.53;51.38;;;;;;;;;;4965834;28;20209;-43
2023/12/07 11:48:11;;;;;;;59.00;53.72;;;;;;;;;;4961184;28;20184;-42
2023/12/07 11:50:55;;;;;;;57.10;51.70;;;;;;;;;;4960425;28;20210;-42
2023/12/07 11:53:24;;;;;;;60.85;55.20;;;;;;;;;;4967209;28;20170;-43
2023/12/07 11:55:50;;;;;;;58.80;53.10;;;;;;;;;;4963043;28;20256;-43
2023/12/07 11:58:16;;;;;;;61.95;55.80;;;;;;;;;;4972538;28;20664;-43
2023/12/07 12:00:44;;;;;;;60.53;54.33;;;;;;;;;;4955173;28;20231;-43
2023/12/07 12:03:11;;;;;;;59.63;53.53;;;;;;;;;;4970687;28;20872;-43
2023/12/07 12:05:38;;;;;;;62.78;56.60;;;;;;;;;;4966530;28;20265;-42
2023/12/07 12:08:05;;;;;;;65.00;58.47;;;;;;;;;;4963072;28;20429;-43
2023/12/07 12:10:30;;;;;;;61.88;55.53;;;;;;;;;;4973856;28;20242;-43
2023/12/07 12:12:56;;;;;;;60.70;54.60;;;;;;;;;;4957088;28;20210;-43
2023/12/07 12:15:23;;;;;;;61.67;55.37;;;;;;;;;;4974237;28;20421;-43
2023/12/07 12:17:49;;;;;;;57.30;51.30;;;;;;;;;;4962790;28;20425;-43
2023/12/07 12:20:17;;;;;;;58.00;51.80;;;;;;;;;;4965964;28;20198;-43
2023/12/07 12:22:43;;;;;;;39.38;36.35;;;;;;;;;;4970227;28;20880;-43
2023/12/07 12:25:10;;;;;;;42.63;39.25;;;;;;;;;;4958542;28;20566;-43
2023/12/07 12:27:36;;;;;;;39.13;36.00;;;;;;;;;;4976115;28;20158;-43
2023/12/07 12:30:03;;;;;;;44.22;40.35;;;;;;;;;;4957951;28;20689;-42
2023/12/07 12:32:33;;;;;;;39.33;36.75;;;;;;;;;;4970156;28;20288;-42
2023/12/07 12:34:59;;;;;;;41.58;38.45;;;;;;;;;;4965712;28;20189;-43
2023/12/07 12:37:25;;;;;;;28.63;26.63;;;;;;;;;;4962625;28;20182;-42
2023/12/07 12:39:51;;;;;;;35.33;32.93;;;;;;;;;;4973388;28;20440;-43
2023/12/07 12:42:17;;;;;;;32.83;30.07;;;;;;;;;;4956552;28;20460;-42
2023/12/07 12:44:44;;;;;;;45.50;41.90;;;;;;;;;;4973781;28;20417;-43
2023/12/07 12:47:10;;;;;;;26.17;24.48;;;;;;;;;;4962069;28;20413;-43
2023/12/07 12:49:37;;;;;;;29.13;27.20;;;;;;;;;;4965727;28;20228;-43
2023/12/07 12:52:04;;;;;;;24.83;23.08;;;;;;;;;;4969629;28;20205;-43
2023/12/07 12:54:33;;;;;;;29.02;26.83;;;;;;;;;;4957625;28;20169;-42
2023/12/07 12:56:59;;;;;;;35.35;32.17;;;;;;;;;;4955920;28;20241;-43
2023/12/07 12:59:25;;;;;;;34.00;31.73;;;;;;;;;;4973499;28;20281;-43
2023/12/07 13:01:51;;;;;;;24.70;23.00;;;;;;;;;;4961492;28;20426;-43
2023/12/07 13:04:17;;;;;;;26.80;24.85;;;;;;;;;;4966031;28;20188;-43
2023/12/07 13:06:43;;;;;;;41.67;38.83;;;;;;;;;;4969722;28;20583;-43
2023/12/07 13:09:09;;;;;;;24.08;22.42;;;;;;;;;;4957636;28;20506;-43
2023/12/07 13:11:35;;;;;;;27.70;25.77;;;;;;;;;;4975076;28;20606;-42
2023/12/07 13:14:06;;;;;;;42.00;39.00;;;;;;;;;;4956783;28;20412;-43
2023/12/07 13:16:32;;;;;;;45.85;42.63;;;;;;;;;;4969682;28;20446;-42
2023/12/07 13:18:58;;;;;;;42.33;39.27;;;;;;;;;;4964785;28;20223;-42
2023/12/07 13:21:24;;;;;;;28.77;26.77;;;;;;;;;;4968740;28;20429;-43
2023/12/07 13:23:50;;;;;;;47.17;43.63;;;;;;;;;;4979217;28;20431;-42
2023/12/07 13:26:16;;;;;;;27.45;25.65;;;;;;;;;;4983967;28;20760;-42
2023/12/07 13:28:42;;;;;;;28.33;26.43;;;;;;;;;;4974774;28;20181;-42
2023/12/07 13:31:08;;;;;;;35.63;32.97;;;;;;;;;;4959198;28;20971;-42
2023/12/07 13:33:34;;;;;;;26.83;24.97;;;;;;;;;;4966998;28;20410;-43
2023/12/07 13:36:01;;;;;;;40.70;37.70;;;;;;;;;;4967290;28;20553;-42
2023/12/07 13:38:29;;;;;;;39.55;36.30;;;;;;;;;;4958857;28;20416;-42
2023/12/07 13:40:56;;;;;;;31.02;28.67;;;;;;;;;;4974557;28;20175;-42
2023/12/07 13:43:24;;;;;;;38.58;35.05;;;;;;;;;;4955613;29;20592;-42
2023/12/07 13:45:50;;;;;;;42.03;37.75;;;;;;;;;;4971104;28;20240;-42
2023/12/07 13:48:16;;;;;;;25.20;23.45;;;;;;;;;;4962542;28;20191;-43
2023/12/07 13:50:43;;;;;;;27.47;25.47;;;;;;;;;;4962718;28;20217;-43
2023/12/07 13:53:12;;;;;;;41.67;38.05;;;;;;;;;;4970455;28;20502;-42
2023/12/07 13:55:39;;;;;;;28.85;26.70;;;;;;;;;;4963307;28;20180;-42
2023/12/07 13:58:06;;;;;;;42.72;38.92;;;;;;;;;;4974527;28;20178;-43
2023/12/07 14:00:32;;;;;;;43.45;39.75;;;;;;;;;;4957911;28;20207;-42
2023/12/07 14:02:58;;;;;;;47.42;42.70;;;;;;;;;;4967603;28;20186;-43
2023/12/07 14:05:24;;;;;;;50.00;45.07;;;;;;;;;;4965361;28;20202;-42
2023/12/07 14:07:50;;;;;;;48.72;43.95;;;;;;;;;;4957320;28;20409;-42
2023/12/07 14:10:17;;;;;;;46.17;41.47;;;;;;;;;;4973095;28;20562;-42
2023/12/07 14:12:43;;;;;;;45.55;40.95;;;;;;;;;;4953988;28;20640;-42
2023/12/07 14:15:10;;;;;;;45.72;40.92;;;;;;;;;;4970179;28;20261;-42
2023/12/07 14:17:40;;;;;;;53.30;44.03;;;;;;;;;;4962196;28;20174;-42
2023/12/07 14:20:07;;;;;;;48.63;42.00;;;;;;;;;;4961384;28;20228;-43
2023/12/07 14:22:33;;;;;;;52.80;42.63;;;;;;;;;;4969314;28;20186;-42
2023/12/07 14:24:59;;;;;;;52.70;43.42;;;;;;;;;;4954604;28;20179;-43